Capo Vado — IPWV — position and weather

sailwx.info

Track history (hours):
 
Tides and Currents Weather Stations Pressure Air Temp Water Temp Dewpoint Dewpoint Depression Visibility Wind Speed Wind Dir Waves Ship Positions

Capo Vado

Last reported at 2016-Dec-07 19:33 UTC. Time now 2016-Dec-07 20:25 UTC.
Position N 44°18' E 008°29'.

Length 30 m; draft 4.5 m.

Type: Tug. MMSI: 247228400.

Date/timePositionNaut miles runAvg speedWind from/ knotsBaromVisibWave heightAir tempDewpointWater temp
2016-Dec-07 19:33N 44°18' E 008°29'0 0.0
2016-Dec-07 18:33N 44°18' E 008°29'0 0.0
2016-Dec-07 17:33N 44°18' E 008°29'0 0.0
2016-Dec-07 16:33N 44°18' E 008°29'0 0.0
2016-Dec-07 15:33N 44°18' E 008°29'0 0.0
2016-Dec-07 14:33N 44°18' E 008°29'0 0.0
2016-Dec-07 13:33N 44°18' E 008°29'0 0.0
2016-Dec-07 12:33N 44°18' E 008°29'0 0.0
2016-Dec-07 11:33N 44°18' E 008°29'0 0.0
2016-Dec-07 10:33N 44°18' E 008°29'2 2.1
2016-Dec-07 09:33N 44°17' E 008°27'0 0.0
2016-Dec-07 08:30N 44°17' E 008°28'1 1.1
2016-Dec-07 07:32N 44°16' E 008°28'1 0.6
2016-Dec-07 06:33N 44°16' E 008°27'3 3.2
2016-Dec-07 05:33N 44°19' E 008°30'1 0.6
2016-Dec-07 04:32N 44°18' E 008°29'0 0.0
2016-Dec-07 03:32N 44°18' E 008°29'0 0.0
2016-Dec-07 02:32N 44°18' E 008°29'0 0.0
2016-Dec-07 01:32N 44°18' E 008°29'0 0.0
2016-Dec-07 00:32N 44°18' E 008°29'0 0.0
2016-Dec-06 23:32N 44°18' E 008°29'0 0.0
2016-Dec-06 22:32N 44°18' E 008°29'0 0.0
2016-Dec-06 21:32N 44°18' E 008°29'0 0.0
2016-Dec-06 20:32N 44°18' E 008°29'0 0.0
2016-Dec-06 18:32N 44°18' E 008°29'0 0.0
2016-Dec-06 17:26N 44°18' E 008°29'0 0.0
2016-Dec-06 16:32N 44°18' E 008°29'0 0.0
2016-Dec-06 15:32N 44°18' E 008°29'0 0.0
2016-Dec-06 14:32N 44°18' E 008°29'0 0.0
2016-Dec-06 13:32N 44°18' E 008°29'0 0.0
2016-Dec-06 12:32N 44°18' E 008°29'0 0.0
2016-Dec-06 11:32N 44°18' E 008°29'2 2.4
2016-Dec-06 10:33N 44°16' E 008°28'0 0.4
2016-Dec-06 09:31N 44°17' E 008°28'2 2.1
2016-Dec-06 08:30N 44°18' E 008°29'0 0.0
2016-Dec-06 07:33N 44°18' E 008°29'0 0.0
2016-Dec-06 06:33N 44°18' E 008°29'0 0.0
2016-Dec-06 05:33N 44°18' E 008°29'0 0.0
2016-Dec-06 04:33N 44°18' E 008°29'0 0.0
2016-Dec-06 03:33N 44°18' E 008°29'0 0.0
2016-Dec-06 02:33N 44°18' E 008°29'0 0.0
2016-Dec-06 01:33N 44°18' E 008°29'0 0.0
2016-Dec-06 00:33N 44°18' E 008°29'0 0.0
2016-Dec-05 23:33N 44°18' E 008°29'0 0.0
2016-Dec-05 22:33N 44°18' E 008°29'0 0.0
2016-Dec-05 21:21N 44°18' E 008°29'0 0.0
2016-Dec-05 20:33N 44°18' E 008°29'0 0.0
2016-Dec-05 19:33N 44°18' E 008°29'0 0.0
2016-Dec-05 18:33N 44°18' E 008°29'0 0.0
2016-Dec-05 17:33N 44°18' E 008°29'0 0.0
2016-Dec-05 16:33N 44°18' E 008°29'0 0.0
2016-Dec-05 15:33N 44°18' E 008°29'0 0.0
2016-Dec-05 14:33N 44°18' E 008°29'0 0.0
2016-Dec-05 13:33N 44°18' E 008°29'0 0.0
2016-Dec-05 12:33N 44°18' E 008°29'0 0.0
2016-Dec-05 11:33N 44°18' E 008°29'0 0.0
2016-Dec-05 10:33N 44°18' E 008°29'0 0.0
2016-Dec-05 09:27N 44°18' E 008°29'2 2.3
2016-Dec-05 08:32N 44°17' E 008°27'1 0.9
2016-Dec-05 07:33N 44°16' E 008°28'4 3.7
2016-Dec-05 06:33N 44°19' E 008°31'0 0.4
2016-Dec-05 05:32N 44°19' E 008°30'1 0.8
2016-Dec-05 04:32N 44°18' E 008°29'0 0.0
2016-Dec-05 03:32N 44°18' E 008°29'0 0.0
2016-Dec-05 02:32N 44°18' E 008°29'0 0.0
2016-Dec-05 01:32N 44°18' E 008°29'0 0.0
2016-Dec-05 00:32N 44°18' E 008°29'0 0.0
2016-Dec-04 23:32N 44°18' E 008°29'0 0.0
2016-Dec-04 22:32N 44°18' E 008°29'0 0.0
2016-Dec-04 21:32N 44°18' E 008°29'0 0.0
2016-Dec-04 20:32N 44°18' E 008°29'0 0.0
2016-Dec-04 19:32N 44°18' E 008°29'0 0.0
2016-Dec-04 18:32N 44°18' E 008°29'0 0.0
2016-Dec-04 17:32N 44°18' E 008°29'0 0.0
2016-Dec-04 16:32N 44°18' E 008°29'1 0.7
2016-Dec-04 15:31N 44°19' E 008°30'1 0.7
2016-Dec-04 14:32N 44°18' E 008°29'0 0.0
2016-Dec-04 13:32N 44°18' E 008°29'0 0.0
2016-Dec-04 12:32N 44°18' E 008°29'0 0.0
2016-Dec-04 11:26N 44°18' E 008°29'0 0.0
2016-Dec-04 10:32N 44°18' E 008°29'0 0.0
2016-Dec-04 09:26N 44°18' E 008°29'0 0.0
2016-Dec-04 08:32N 44°18' E 008°29'0 0.0
2016-Dec-04 07:32N 44°18' E 008°29'0 0.0
2016-Dec-04 06:32N 44°18' E 008°29'0 0.0
2016-Dec-04 05:32N 44°18' E 008°29'0 0.0
2016-Dec-04 04:32N 44°18' E 008°29'0 0.0
2016-Dec-04 03:32N 44°18' E 008°29'0 0.0
2016-Dec-04 02:32N 44°18' E 008°29'0 0.0
2016-Dec-04 01:32N 44°18' E 008°29'0 0.0
2016-Dec-04 00:32N 44°18' E 008°29'0 0.0
2016-Dec-03 23:32N 44°18' E 008°29'0 0.0
2016-Dec-03 22:32N 44°18' E 008°29'0 0.0
2016-Dec-03 21:32N 44°18' E 008°29'0 0.0
2016-Dec-03 20:32N 44°18' E 008°29'0 0.0
2016-Dec-03 19:32N 44°18' E 008°29'0 0.0
2016-Dec-03 18:32N 44°18' E 008°29'0 0.0
2016-Dec-03 17:32N 44°18' E 008°29'0 0.0
2016-Dec-03 16:32N 44°18' E 008°29'0 0.0
2016-Dec-03 15:32N 44°18' E 008°29'0 0.0
2016-Dec-03 14:32N 44°18' E 008°29'0 0.0
2016-Dec-03 13:32N 44°18' E 008°29'0 0.0
2016-Dec-03 12:32N 44°18' E 008°29'2 2.2
2016-Dec-03 11:33N 44°17' E 008°27'0 0.0
2016-Dec-03 10:22N 44°17' E 008°27'0 0.3
2016-Dec-03 09:28N 44°17' E 008°28'0 0.4
2016-Dec-03 08:28N 44°16' E 008°28'2 2.6
2016-Dec-03 07:33N 44°18' E 008°30'1 0.6
2016-Dec-03 06:29N 44°18' E 008°29'0 0.0
2016-Dec-03 05:29N 44°18' E 008°29'0 0.0
2016-Dec-03 04:23N 44°18' E 008°29'0 0.0
2016-Dec-03 03:29N 44°18' E 008°29'0 0.0
2016-Dec-03 02:29N 44°18' E 008°29'0 0.0
2016-Dec-03 01:23N 44°18' E 008°29'0 0.0
2016-Dec-03 00:29N 44°18' E 008°29'0 0.0
2016-Dec-02 23:32N 44°18' E 008°29'0 0.0
2016-Dec-02 22:32N 44°18' E 008°29'0 0.0
2016-Dec-02 21:32N 44°18' E 008°29'0 0.0
2016-Dec-02 20:29N 44°18' E 008°29'0 0.0
2016-Dec-02 19:20N 44°18' E 008°29'0 0.0
2016-Dec-02 18:32N 44°18' E 008°29'0 0.0
2016-Dec-02 17:29N 44°18' E 008°29'0 0.0
2016-Dec-02 16:29N 44°18' E 008°29'0 0.0
2016-Dec-02 15:29N 44°18' E 008°29'0 0.0
2016-Dec-02 14:29N 44°18' E 008°29'0 0.0
2016-Dec-02 13:29N 44°18' E 008°29'0 0.0
2016-Dec-02 12:29N 44°18' E 008°29'0 0.0
2016-Dec-02 11:29N 44°18' E 008°29'0 0.0
2016-Dec-02 10:29N 44°18' E 008°29'0 0.0
2016-Dec-02 09:29N 44°18' E 008°29'0 0.0
2016-Dec-02 08:29N 44°18' E 008°29'0 0.0
2016-Dec-02 07:29N 44°18' E 008°29'0 0.0
2016-Dec-02 06:24N 44°18' E 008°29'1 1.4
2016-Dec-02 05:33N 44°19' E 008°31'1 1.1
2016-Dec-02 04:30N 44°18' E 008°29'0 0.0
2016-Dec-02 03:30N 44°18' E 008°29'0 0.0
2016-Dec-02 02:30N 44°18' E 008°29'0 0.0
2016-Dec-02 01:33N 44°18' E 008°29'0 0.0
2016-Dec-02 00:30N 44°18' E 008°29'0 0.0
2016-Dec-01 23:30N 44°18' E 008°29'0 0.0
2016-Dec-01 22:24N 44°18' E 008°29'0 0.0
2016-Dec-01 21:30N 44°18' E 008°29'0 0.0
2016-Dec-01 20:30N 44°18' E 008°29'0 0.0
2016-Dec-01 19:30N 44°18' E 008°29'0 0.0
2016-Dec-01 18:30N 44°18' E 008°29'0 0.0
2016-Dec-01 17:18N 44°18' E 008°29'0 0.0
2016-Dec-01 16:30N 44°18' E 008°29'0 0.0
2016-Dec-01 15:30N 44°18' E 008°29'0 0.0
2016-Dec-01 14:30N 44°18' E 008°29'0 0.0
2016-Dec-01 13:30N 44°18' E 008°29'0 0.0
2016-Dec-01 12:30N 44°18' E 008°29'1 0.9
2016-Dec-01 11:33N 44°19' E 008°30'1 0.8
2016-Dec-01 10:31N 44°18' E 008°29'0 0.0
2016-Dec-01 09:31N 44°18' E 008°29'0 0.0
2016-Dec-01 08:31N 44°18' E 008°29'0 0.0
2016-Dec-01 07:31N 44°18' E 008°29'0 0.0
2016-Dec-01 06:31N 44°18' E 008°29'0 0.0
2016-Dec-01 05:31N 44°18' E 008°29'0 0.0
2016-Dec-01 04:20N 44°18' E 008°29'0 0.0
2016-Dec-01 03:32N 44°18' E 008°29'0 0.0
2016-Dec-01 02:32N 44°18' E 008°29'0 0.0
2016-Dec-01 01:32N 44°18' E 008°29'0 0.0
2016-Dec-01 00:32N 44°18' E 008°29'0 0.0
2016-Nov-30 23:32N 44°18' E 008°29'0 0.0
2016-Nov-30 22:32N 44°18' E 008°29'0 0.0
2016-Nov-30 21:32N 44°18' E 008°29'0 0.0
2016-Nov-30 20:32N 44°18' E 008°29'0 0.0
2016-Nov-30 19:32N 44°18' E 008°29'0 0.0
2016-Nov-30 18:32N 44°18' E 008°29'0 0.0
2016-Nov-30 17:32N 44°18' E 008°29'0 0.0
2016-Nov-30 16:32N 44°18' E 008°29'0 0.0
2016-Nov-30 15:32N 44°18' E 008°29'0 0.0
2016-Nov-30 14:32N 44°18' E 008°29'0 0.0
2016-Nov-30 13:32N 44°18' E 008°29'0 0.0
2016-Nov-30 12:32N 44°18' E 008°29'0 0.0
2016-Nov-30 11:32N 44°18' E 008°29'0 0.0
2016-Nov-30 10:20N 44°18' E 008°29'0 0.0
2016-Nov-30 09:32N 44°18' E 008°29'0 0.0
2016-Nov-30 08:32N 44°18' E 008°29'0 0.0
2016-Nov-30 07:32N 44°18' E 008°29'0 0.0
2016-Nov-30 06:33N 44°18' E 008°29'1 0.7
2016-Nov-30 05:33N 44°19' E 008°30'1 0.6
2016-Nov-30 04:25N 44°18' E 008°29'0 0.0
2016-Nov-30 03:31N 44°18' E 008°29'0 0.0
2016-Nov-30 02:31N 44°18' E 008°29'0 0.0
2016-Nov-30 01:13N 44°18' E 008°29'0 0.0
2016-Nov-30 00:31N 44°18' E 008°29'0 0.0
2016-Nov-29 23:31N 44°18' E 008°29'0 0.0
2016-Nov-29 22:31N 44°18' E 008°29'0 0.0
2016-Nov-29 21:31N 44°18' E 008°29'0 0.0
2016-Nov-29 20:31N 44°18' E 008°29'0 0.0
2016-Nov-29 19:31N 44°18' E 008°29'0 0.0
2016-Nov-29 18:31N 44°18' E 008°29'0 0.0
2016-Nov-29 17:31N 44°18' E 008°29'0 0.0
2016-Nov-29 16:31N 44°18' E 008°29'0 0.0
2016-Nov-29 15:31N 44°18' E 008°29'0 0.0
2016-Nov-29 14:31N 44°18' E 008°29'0 0.0
2016-Nov-29 13:31N 44°18' E 008°29'0 0.0
2016-Nov-29 12:31N 44°18' E 008°29'0 0.0
2016-Nov-29 11:31N 44°18' E 008°29'0 0.0
2016-Nov-29 10:31N 44°18' E 008°29'0 0.0
2016-Nov-29 09:31N 44°18' E 008°29'0 0.0
2016-Nov-29 08:30N 44°18' E 008°29'0 0.0
2016-Nov-29 07:30N 44°18' E 008°29'0 0.0
2016-Nov-29 06:30N 44°18' E 008°29'0 0.0
2016-Nov-29 05:30N 44°18' E 008°29'0 0.0
2016-Nov-29 04:30N 44°18' E 008°29'0 0.0
2016-Nov-29 03:30N 44°18' E 008°29'0 0.0
2016-Nov-29 02:30N 44°18' E 008°29'0 0.0
2016-Nov-29 01:30N 44°18' E 008°29'0 0.0
2016-Nov-29 00:30N 44°18' E 008°29'0 0.0
2016-Nov-28 23:30N 44°18' E 008°29'0 0.0
2016-Nov-28 22:30N 44°18' E 008°29'0 0.0
2016-Nov-28 21:30N 44°18' E 008°29'0 0.0
2016-Nov-28 20:33N 44°18' E 008°29'0 0.0
2016-Nov-28 19:30N 44°18' E 008°29'0 0.0
2016-Nov-28 18:30N 44°18' E 008°29'0 0.0
2016-Nov-28 17:18N 44°18' E 008°29'0 0.0
2016-Nov-28 16:24N 44°18' E 008°29'0 0.0
2016-Nov-28 15:30N 44°18' E 008°29'0 0.0
2016-Nov-28 14:30N 44°18' E 008°29'1 1.2
2016-Nov-28 13:34N 44°19' E 008°31'1 1.1
2016-Nov-28 12:28N 44°18' E 008°29'0 0.0
2016-Nov-28 11:28N 44°18' E 008°29'0 0.0
2016-Nov-28 10:28N 44°18' E 008°29'0 0.0
2016-Nov-28 09:28N 44°18' E 008°29'0 0.0
2016-Nov-28 08:23N 44°18' E 008°29'0 0.0
2016-Nov-28 07:28N 44°18' E 008°29'3 3.2
2016-Nov-28 06:30N 44°16' E 008°27'3 3.3
2016-Nov-28 05:33N 44°18' E 008°29'0 0.0
2016-Nov-28 04:33N 44°18' E 008°29'0 0.0
2016-Nov-28 03:33N 44°18' E 008°29'0 0.0
2016-Nov-28 02:33N 44°18' E 008°29'0 0.0
2016-Nov-28 01:33N 44°18' E 008°29'0 0.0
2016-Nov-28 00:33N 44°18' E 008°29'0 0.0
2016-Nov-27 23:33N 44°18' E 008°29'0 0.0
2016-Nov-27 22:33N 44°18' E 008°29'0 0.0
2016-Nov-27 21:33N 44°18' E 008°29'0 0.0
2016-Nov-27 20:33N 44°18' E 008°29'  
Track history (hours):
 
Tides and Currents Weather Stations Pressure Air Temp Water Temp Dewpoint Dewpoint Depression Visibility Wind Speed Wind Dir Waves Ship Positions

Capo Vado

Last reported at 2016-Dec-07 19:33 UTC. Time now 2016-Dec-07 20:25 UTC.
Position N 44°18' E 008°29'.

Length 30 m; draft 4.5 m.

Type: Tug. MMSI: 247228400.

Date/timePositionNaut miles runAvg speedWind from/ knotsBaromVisibWave heightAir tempDewpointWater temp
2016-Dec-07 19:33N 44°18' E 008°29'0 0.0
2016-Dec-07 18:33N 44°18' E 008°29'0 0.0
2016-Dec-07 17:33N 44°18' E 008°29'0 0.0
2016-Dec-07 16:33N 44°18' E 008°29'0 0.0
2016-Dec-07 15:33N 44°18' E 008°29'0 0.0
2016-Dec-07 14:33N 44°18' E 008°29'0 0.0
2016-Dec-07 13:33N 44°18' E 008°29'0 0.0
2016-Dec-07 12:33N 44°18' E 008°29'0 0.0
2016-Dec-07 11:33N 44°18' E 008°29'0 0.0
2016-Dec-07 10:33N 44°18' E 008°29'2 2.1
2016-Dec-07 09:33N 44°17' E 008°27'0 0.0
2016-Dec-07 08:30N 44°17' E 008°28'1 1.1
2016-Dec-07 07:32N 44°16' E 008°28'1 0.6
2016-Dec-07 06:33N 44°16' E 008°27'3 3.2
2016-Dec-07 05:33N 44°19' E 008°30'1 0.6
2016-Dec-07 04:32N 44°18' E 008°29'0 0.0
2016-Dec-07 03:32N 44°18' E 008°29'0 0.0
2016-Dec-07 02:32N 44°18' E 008°29'0 0.0
2016-Dec-07 01:32N 44°18' E 008°29'0 0.0
2016-Dec-07 00:32N 44°18' E 008°29'0 0.0
2016-Dec-06 23:32N 44°18' E 008°29'0 0.0
2016-Dec-06 22:32N 44°18' E 008°29'0 0.0
2016-Dec-06 21:32N 44°18' E 008°29'0 0.0
2016-Dec-06 20:32N 44°18' E 008°29'0 0.0
2016-Dec-06 18:32N 44°18' E 008°29'0 0.0
2016-Dec-06 17:26N 44°18' E 008°29'0 0.0
2016-Dec-06 16:32N 44°18' E 008°29'0 0.0
2016-Dec-06 15:32N 44°18' E 008°29'0 0.0
2016-Dec-06 14:32N 44°18' E 008°29'0 0.0
2016-Dec-06 13:32N 44°18' E 008°29'0 0.0
2016-Dec-06 12:32N 44°18' E 008°29'0 0.0
2016-Dec-06 11:32N 44°18' E 008°29'2 2.4
2016-Dec-06 10:33N 44°16' E 008°28'0 0.4
2016-Dec-06 09:31N 44°17' E 008°28'2 2.1
2016-Dec-06 08:30N 44°18' E 008°29'0 0.0
2016-Dec-06 07:33N 44°18' E 008°29'0 0.0
2016-Dec-06 06:33N 44°18' E 008°29'0 0.0
2016-Dec-06 05:33N 44°18' E 008°29'0 0.0
2016-Dec-06 04:33N 44°18' E 008°29'0 0.0
2016-Dec-06 03:33N 44°18' E 008°29'0 0.0
2016-Dec-06 02:33N 44°18' E 008°29'0 0.0
2016-Dec-06 01:33N 44°18' E 008°29'0 0.0
2016-Dec-06 00:33N 44°18' E 008°29'0 0.0
2016-Dec-05 23:33N 44°18' E 008°29'0 0.0
2016-Dec-05 22:33N 44°18' E 008°29'0 0.0
2016-Dec-05 21:21N 44°18' E 008°29'0 0.0
2016-Dec-05 20:33N 44°18' E 008°29'0 0.0
2016-Dec-05 19:33N 44°18' E 008°29'0 0.0
2016-Dec-05 18:33N 44°18' E 008°29'0 0.0
2016-Dec-05 17:33N 44°18' E 008°29'0 0.0
2016-Dec-05 16:33N 44°18' E 008°29'0 0.0
2016-Dec-05 15:33N 44°18' E 008°29'0 0.0
2016-Dec-05 14:33N 44°18' E 008°29'0 0.0
2016-Dec-05 13:33N 44°18' E 008°29'0 0.0
2016-Dec-05 12:33N 44°18' E 008°29'0 0.0
2016-Dec-05 11:33N 44°18' E 008°29'0 0.0
2016-Dec-05 10:33N 44°18' E 008°29'0 0.0
2016-Dec-05 09:27N 44°18' E 008°29'2 2.3
2016-Dec-05 08:32N 44°17' E 008°27'1 0.9
2016-Dec-05 07:33N 44°16' E 008°28'4 3.7
2016-Dec-05 06:33N 44°19' E 008°31'0 0.4
2016-Dec-05 05:32N 44°19' E 008°30'1 0.8
2016-Dec-05 04:32N 44°18' E 008°29'0 0.0
2016-Dec-05 03:32N 44°18' E 008°29'0 0.0
2016-Dec-05 02:32N 44°18' E 008°29'0 0.0
2016-Dec-05 01:32N 44°18' E 008°29'0 0.0
2016-Dec-05 00:32N 44°18' E 008°29'0 0.0
2016-Dec-04 23:32N 44°18' E 008°29'0 0.0
2016-Dec-04 22:32N 44°18' E 008°29'0 0.0
2016-Dec-04 21:32N 44°18' E 008°29'0 0.0
2016-Dec-04 20:32N 44°18' E 008°29'0 0.0
2016-Dec-04 19:32N 44°18' E 008°29'0 0.0
2016-Dec-04 18:32N 44°18' E 008°29'0 0.0
2016-Dec-04 17:32N 44°18' E 008°29'0 0.0
2016-Dec-04 16:32N 44°18' E 008°29'1 0.7
2016-Dec-04 15:31N 44°19' E 008°30'1 0.7
2016-Dec-04 14:32N 44°18' E 008°29'0 0.0
2016-Dec-04 13:32N 44°18' E 008°29'0 0.0
2016-Dec-04 12:32N 44°18' E 008°29'0 0.0
2016-Dec-04 11:26N 44°18' E 008°29'0 0.0
2016-Dec-04 10:32N 44°18' E 008°29'0 0.0
2016-Dec-04 09:26N 44°18' E 008°29'0 0.0
2016-Dec-04 08:32N 44°18' E 008°29'0 0.0
2016-Dec-04 07:32N 44°18' E 008°29'0 0.0
2016-Dec-04 06:32N 44°18' E 008°29'0 0.0
2016-Dec-04 05:32N 44°18' E 008°29'0 0.0
2016-Dec-04 04:32N 44°18' E 008°29'0 0.0
2016-Dec-04 03:32N 44°18' E 008°29'0 0.0
2016-Dec-04 02:32N 44°18' E 008°29'0 0.0
2016-Dec-04 01:32N 44°18' E 008°29'0 0.0
2016-Dec-04 00:32N 44°18' E 008°29'0 0.0
2016-Dec-03 23:32N 44°18' E 008°29'0 0.0
2016-Dec-03 22:32N 44°18' E 008°29'0 0.0
2016-Dec-03 21:32N 44°18' E 008°29'0 0.0
2016-Dec-03 20:32N 44°18' E 008°29'0 0.0
2016-Dec-03 19:32N 44°18' E 008°29'0 0.0
2016-Dec-03 18:32N 44°18' E 008°29'0 0.0
2016-Dec-03 17:32N 44°18' E 008°29'0 0.0
2016-Dec-03 16:32N 44°18' E 008°29'0 0.0
2016-Dec-03 15:32N 44°18' E 008°29'0 0.0
2016-Dec-03 14:32N 44°18' E 008°29'0 0.0
2016-Dec-03 13:32N 44°18' E 008°29'0 0.0
2016-Dec-03 12:32N 44°18' E 008°29'2 2.2
2016-Dec-03 11:33N 44°17' E 008°27'0 0.0
2016-Dec-03 10:22N 44°17' E 008°27'0 0.3
2016-Dec-03 09:28N 44°17' E 008°28'0 0.4
2016-Dec-03 08:28N 44°16' E 008°28'2 2.6
2016-Dec-03 07:33N 44°18' E 008°30'1 0.6
2016-Dec-03 06:29N 44°18' E 008°29'0 0.0
2016-Dec-03 05:29N 44°18' E 008°29'0 0.0
2016-Dec-03 04:23N 44°18' E 008°29'0 0.0
2016-Dec-03 03:29N 44°18' E 008°29'0 0.0
2016-Dec-03 02:29N 44°18' E 008°29'0 0.0
2016-Dec-03 01:23N 44°18' E 008°29'0 0.0
2016-Dec-03 00:29N 44°18' E 008°29'0 0.0
2016-Dec-02 23:32N 44°18' E 008°29'0 0.0
2016-Dec-02 22:32N 44°18' E 008°29'0 0.0
2016-Dec-02 21:32N 44°18' E 008°29'0 0.0
2016-Dec-02 20:29N 44°18' E 008°29'0 0.0
2016-Dec-02 19:20N 44°18' E 008°29'0 0.0
2016-Dec-02 18:32N 44°18' E 008°29'0 0.0
2016-Dec-02 17:29N 44°18' E 008°29'0 0.0
2016-Dec-02 16:29N 44°18' E 008°29'0 0.0
2016-Dec-02 15:29N 44°18' E 008°29'0 0.0
2016-Dec-02 14:29N 44°18' E 008°29'0 0.0
2016-Dec-02 13:29N 44°18' E 008°29'0 0.0
2016-Dec-02 12:29N 44°18' E 008°29'0 0.0
2016-Dec-02 11:29N 44°18' E 008°29'0 0.0
2016-Dec-02 10:29N 44°18' E 008°29'0 0.0
2016-Dec-02 09:29N 44°18' E 008°29'0 0.0
2016-Dec-02 08:29N 44°18' E 008°29'0 0.0
2016-Dec-02 07:29N 44°18' E 008°29'0 0.0
2016-Dec-02 06:24N 44°18' E 008°29'1 1.4
2016-Dec-02 05:33N 44°19' E 008°31'1 1.1
2016-Dec-02 04:30N 44°18' E 008°29'0 0.0
2016-Dec-02 03:30N 44°18' E 008°29'0 0.0
2016-Dec-02 02:30N 44°18' E 008°29'0 0.0
2016-Dec-02 01:33N 44°18' E 008°29'0 0.0
2016-Dec-02 00:30N 44°18' E 008°29'0 0.0
2016-Dec-01 23:30N 44°18' E 008°29'0 0.0
2016-Dec-01 22:24N 44°18' E 008°29'0 0.0
2016-Dec-01 21:30N 44°18' E 008°29'0 0.0
2016-Dec-01 20:30N 44°18' E 008°29'0 0.0
2016-Dec-01 19:30N 44°18' E 008°29'0 0.0
2016-Dec-01 18:30N 44°18' E 008°29'0 0.0
2016-Dec-01 17:18N 44°18' E 008°29'0 0.0
2016-Dec-01 16:30N 44°18' E 008°29'0 0.0
2016-Dec-01 15:30N 44°18' E 008°29'0 0.0
2016-Dec-01 14:30N 44°18' E 008°29'0 0.0
2016-Dec-01 13:30N 44°18' E 008°29'0 0.0
2016-Dec-01 12:30N 44°18' E 008°29'1 0.9
2016-Dec-01 11:33N 44°19' E 008°30'1 0.8
2016-Dec-01 10:31N 44°18' E 008°29'0 0.0
2016-Dec-01 09:31N 44°18' E 008°29'0 0.0
2016-Dec-01 08:31N 44°18' E 008°29'0 0.0
2016-Dec-01 07:31N 44°18' E 008°29'0 0.0
2016-Dec-01 06:31N 44°18' E 008°29'0 0.0
2016-Dec-01 05:31N 44°18' E 008°29'0 0.0
2016-Dec-01 04:20N 44°18' E 008°29'0 0.0
2016-Dec-01 03:32N 44°18' E 008°29'0 0.0
2016-Dec-01 02:32N 44°18' E 008°29'0 0.0
2016-Dec-01 01:32N 44°18' E 008°29'0 0.0
2016-Dec-01 00:32N 44°18' E 008°29'0 0.0
2016-Nov-30 23:32N 44°18' E 008°29'0 0.0
2016-Nov-30 22:32N 44°18' E 008°29'0 0.0
2016-Nov-30 21:32N 44°18' E 008°29'0 0.0
2016-Nov-30 20:32N 44°18' E 008°29'0 0.0
2016-Nov-30 19:32N 44°18' E 008°29'0 0.0
2016-Nov-30 18:32N 44°18' E 008°29'0 0.0
2016-Nov-30 17:32N 44°18' E 008°29'0 0.0
2016-Nov-30 16:32N 44°18' E 008°29'0 0.0
2016-Nov-30 15:32N 44°18' E 008°29'0 0.0
2016-Nov-30 14:32N 44°18' E 008°29'0 0.0
2016-Nov-30 13:32N 44°18' E 008°29'0 0.0
2016-Nov-30 12:32N 44°18' E 008°29'0 0.0
2016-Nov-30 11:32N 44°18' E 008°29'0 0.0
2016-Nov-30 10:20N 44°18' E 008°29'0 0.0
2016-Nov-30 09:32N 44°18' E 008°29'0 0.0
2016-Nov-30 08:32N 44°18' E 008°29'0 0.0
2016-Nov-30 07:32N 44°18' E 008°29'0 0.0
2016-Nov-30 06:33N 44°18' E 008°29'1 0.7
2016-Nov-30 05:33N 44°19' E 008°30'1 0.6
2016-Nov-30 04:25N 44°18' E 008°29'0 0.0
2016-Nov-30 03:31N 44°18' E 008°29'0 0.0
2016-Nov-30 02:31N 44°18' E 008°29'0 0.0
2016-Nov-30 01:13N 44°18' E 008°29'0 0.0
2016-Nov-30 00:31N 44°18' E 008°29'0 0.0
2016-Nov-29 23:31N 44°18' E 008°29'0 0.0
2016-Nov-29 22:31N 44°18' E 008°29'0 0.0
2016-Nov-29 21:31N 44°18' E 008°29'0 0.0
2016-Nov-29 20:31N 44°18' E 008°29'0 0.0
2016-Nov-29 19:31N 44°18' E 008°29'0 0.0
2016-Nov-29 18:31N 44°18' E 008°29'0 0.0
2016-Nov-29 17:31N 44°18' E 008°29'0 0.0
2016-Nov-29 16:31N 44°18' E 008°29'0 0.0
2016-Nov-29 15:31N 44°18' E 008°29'0 0.0
2016-Nov-29 14:31N 44°18' E 008°29'0 0.0
2016-Nov-29 13:31N 44°18' E 008°29'0 0.0
2016-Nov-29 12:31N 44°18' E 008°29'0 0.0
2016-Nov-29 11:31N 44°18' E 008°29'0 0.0
2016-Nov-29 10:31N 44°18' E 008°29'0 0.0
2016-Nov-29 09:31N 44°18' E 008°29'0 0.0
2016-Nov-29 08:30N 44°18' E 008°29'0 0.0
2016-Nov-29 07:30N 44°18' E 008°29'0 0.0
2016-Nov-29 06:30N 44°18' E 008°29'0 0.0
2016-Nov-29 05:30N 44°18' E 008°29'0 0.0
2016-Nov-29 04:30N 44°18' E 008°29'0 0.0
2016-Nov-29 03:30N 44°18' E 008°29'0 0.0
2016-Nov-29 02:30N 44°18' E 008°29'0 0.0
2016-Nov-29 01:30N 44°18' E 008°29'0 0.0
2016-Nov-29 00:30N 44°18' E 008°29'0 0.0
2016-Nov-28 23:30N 44°18' E 008°29'0 0.0
2016-Nov-28 22:30N 44°18' E 008°29'0 0.0
2016-Nov-28 21:30N 44°18' E 008°29'0 0.0
2016-Nov-28 20:33N 44°18' E 008°29'0 0.0
2016-Nov-28 19:30N 44°18' E 008°29'0 0.0
2016-Nov-28 18:30N 44°18' E 008°29'0 0.0
2016-Nov-28 17:18N 44°18' E 008°29'0 0.0
2016-Nov-28 16:24N 44°18' E 008°29'0 0.0
2016-Nov-28 15:30N 44°18' E 008°29'0 0.0
2016-Nov-28 14:30N 44°18' E 008°29'1 1.2
2016-Nov-28 13:34N 44°19' E 008°31'1 1.1
2016-Nov-28 12:28N 44°18' E 008°29'0 0.0
2016-Nov-28 11:28N 44°18' E 008°29'0 0.0
2016-Nov-28 10:28N 44°18' E 008°29'0 0.0
2016-Nov-28 09:28N 44°18' E 008°29'0 0.0
2016-Nov-28 08:23N 44°18' E 008°29'0 0.0
2016-Nov-28 07:28N 44°18' E 008°29'3 3.2
2016-Nov-28 06:30N 44°16' E 008°27'3 3.3
2016-Nov-28 05:33N 44°18' E 008°29'0 0.0
2016-Nov-28 04:33N 44°18' E 008°29'0 0.0
2016-Nov-28 03:33N 44°18' E 008°29'0 0.0
2016-Nov-28 02:33N 44°18' E 008°29'0 0.0
2016-Nov-28 01:33N 44°18' E 008°29'0 0.0
2016-Nov-28 00:33N 44°18' E 008°29'0 0.0
2016-Nov-27 23:33N 44°18' E 008°29'0 0.0
2016-Nov-27 22:33N 44°18' E 008°29'0 0.0
2016-Nov-27 21:33N 44°18' E 008°29'0 0.0
2016-Nov-27 20:33N 44°18' E 008°29'  

Dump ship's entire track history